createdAt,value
2022-08-02T00:01:04.350Z,2.00
2022-08-02T00:03:51.330Z,1.90
2022-08-02T00:06:39.063Z,2.10
2022-08-02T00:09:26.670Z,2.17
2022-08-02T00:12:14.233Z,2.08
2022-08-02T00:15:01.641Z,2.00
2022-08-02T00:17:49.371Z,2.22
2022-08-02T00:20:36.985Z,1.90
2022-08-02T00:23:24.882Z,2.52
2022-08-02T00:26:12.161Z,2.20
2022-08-02T00:28:59.778Z,2.27
2022-08-02T00:31:46.654Z,2.10
2022-08-02T00:34:37.732Z,1.95
2022-08-02T00:37:23.167Z,2.00
2022-08-02T00:40:11.419Z,2.00
2022-08-02T00:43:09.583Z,2.10
2022-08-02T00:46:02.858Z,2.55
2022-08-02T00:48:47.828Z,2.08
2022-08-02T00:51:37.188Z,2.35
2022-08-02T00:54:24.428Z,1.95
2022-08-02T00:57:11.956Z,2.25
2022-08-02T00:59:59.688Z,2.15
2022-08-02T01:02:47.723Z,2.33
2022-08-02T01:06:02.202Z,2.35
2022-08-02T01:08:29.638Z,2.30
2022-08-02T01:11:12.763Z,2.50
2022-08-02T01:14:12.181Z,2.37
2022-08-02T01:17:02.796Z,2.30
2022-08-02T01:19:56.315Z,2.10
2022-08-02T01:23:06.155Z,2.37
2022-08-02T01:26:26.606Z,2.40
2022-08-02T01:29:29.046Z,2.45
2022-08-02T01:32:22.566Z,2.40
2022-08-02T01:35:24.618Z,2.05
2022-08-02T01:38:24.067Z,2.42
2022-08-02T01:41:14.378Z,2.52
2022-08-02T01:44:03.694Z,2.12
2022-08-02T01:46:52.589Z,2.33
2022-08-02T01:49:42.801Z,2.60
2022-08-02T01:52:32.397Z,2.40
2022-08-02T01:55:33.437Z,2.58
2022-08-02T01:58:18.459Z,2.30
2022-08-02T02:01:08.088Z,2.35
2022-08-02T02:03:56.127Z,2.50
2022-08-02T02:06:45.793Z,2.50
2022-08-02T02:09:36.110Z,2.83
2022-08-02T02:12:26.112Z,2.50
2022-08-02T02:15:14.420Z,2.87
2022-08-02T02:18:12.430Z,2.47
2022-08-02T02:20:53.837Z,2.72
2022-08-02T02:23:41.494Z,2.45
2022-08-02T02:26:31.719Z,2.80
2022-08-02T02:29:22.140Z,2.40
2022-08-02T02:32:10.037Z,2.40
2022-08-02T02:35:00.307Z,2.37
2022-08-02T02:37:50.446Z,2.72
2022-08-02T02:40:39.621Z,2.72
2022-08-02T02:43:29.668Z,2.50
2022-08-02T02:46:20.513Z,2.72
2022-08-02T02:49:09.161Z,2.17
2022-08-02T02:51:57.962Z,2.60
2022-08-02T02:54:48.972Z,2.50
2022-08-02T02:57:38.567Z,2.77
2022-08-02T03:00:43.843Z,2.60
2022-08-02T03:03:31.799Z,2.77
2022-08-02T03:06:19.967Z,2.58
2022-08-02T03:09:08.471Z,2.70
2022-08-02T03:11:57.423Z,2.60
2022-08-02T03:14:44.813Z,2.65
2022-08-02T03:17:41.581Z,2.60
2022-08-02T03:20:28.863Z,2.60
2022-08-02T03:23:16.135Z,2.62
2022-08-02T03:26:04.246Z,2.62
2022-08-02T03:28:51.485Z,2.60
2022-08-02T03:31:41.497Z,2.95
2022-08-02T03:34:28.900Z,2.90
2022-08-02T03:37:17.184Z,2.85
2022-08-02T03:40:07.577Z,2.90
2022-08-02T03:42:55.597Z,2.72
2022-08-02T03:45:48.896Z,3.10
2022-08-02T03:48:36.927Z,3.40
2022-08-02T03:51:24.740Z,3.25
2022-08-02T03:54:12.472Z,2.98
2022-08-02T03:56:59.983Z,3.17
2022-08-02T03:59:48.064Z,3.42
2022-08-02T04:02:36.488Z,3.50
2022-08-02T04:05:23.919Z,3.50
2022-08-02T04:08:36.991Z,3.40
2022-08-02T04:11:01.824Z,2.80
2022-08-02T04:13:49.792Z,3.37
2022-08-02T04:16:52.467Z,3.47
2022-08-02T04:19:48.960Z,3.25
2022-08-02T04:22:42.142Z,3.55
2022-08-02T04:25:34.332Z,3.33
2022-08-02T04:28:19.462Z,3.62
2022-08-02T04:31:09.281Z,3.58
2022-08-02T04:33:57.489Z,3.33
2022-08-02T04:36:45.053Z,3.27
2022-08-02T04:39:33.287Z,4.00
2022-08-02T04:42:25.417Z,3.60
2022-08-02T04:45:16.578Z,3.52
2022-08-02T04:48:06.159Z,3.90
2022-08-02T04:50:51.938Z,4.20
2022-08-02T04:53:39.512Z,3.72
2022-08-02T04:56:26.768Z,3.95
2022-08-02T04:59:14.057Z,3.30
2022-08-02T05:02:01.351Z,3.40
2022-08-02T05:04:48.760Z,3.42
2022-08-02T05:07:36.218Z,3.25
2022-08-02T05:10:24.672Z,3.50
2022-08-02T05:13:12.131Z,3.52
2022-08-02T05:16:03.397Z,3.72
2022-08-02T05:18:50.930Z,3.22
2022-08-02T05:21:38.365Z,3.25
2022-08-02T05:24:25.703Z,2.98
2022-08-02T05:27:16.910Z,3.20
2022-08-02T05:30:01.884Z,3.20
2022-08-02T05:32:52.532Z,3.12
2022-08-02T05:35:40.039Z,3.83
2022-08-02T05:38:29.149Z,3.67
2022-08-02T05:41:16.735Z,3.62
2022-08-02T05:44:05.036Z,3.45
2022-08-02T05:46:52.614Z,3.72
2022-08-02T05:49:40.222Z,3.83
2022-08-02T05:52:30.615Z,3.80
2022-08-02T05:55:26.805Z,3.67
2022-08-02T05:58:16.829Z,3.90
2022-08-02T06:01:05.875Z,3.62
2022-08-02T06:03:53.616Z,3.65
2022-08-02T06:06:44.082Z,4.05
2022-08-02T06:09:32.189Z,3.87
2022-08-02T06:12:20.457Z,3.90
2022-08-02T06:15:08.514Z,3.75
2022-08-02T06:17:56.873Z,3.50
2022-08-02T06:20:45.104Z,3.62
2022-08-02T06:23:33.584Z,3.70
2022-08-02T06:26:24.415Z,3.75
2022-08-02T06:29:13.902Z,3.40
2022-08-02T06:32:02.167Z,3.30
2022-08-02T06:34:49.874Z,3.77
2022-08-02T06:37:45.947Z,4.10
2022-08-02T06:40:45.613Z,4.42
2022-08-02T06:43:53.145Z,4.28
2022-08-02T06:47:11.350Z,3.60
2022-08-02T06:49:52.064Z,3.80
2022-08-02T06:52:20.221Z,4.10
2022-08-02T06:55:08.893Z,4.00
2022-08-02T06:57:56.744Z,3.98
2022-08-02T07:00:44.256Z,3.50
2022-08-02T07:03:31.887Z,3.20
2022-08-02T07:06:19.241Z,3.10
2022-08-02T07:09:22.302Z,3.15
2022-08-02T07:11:55.632Z,3.20
2022-08-02T07:14:43.087Z,3.10
2022-08-02T07:17:31.020Z,3.35
2022-08-02T07:20:18.785Z,3.40
2022-08-02T07:23:06.251Z,2.90
2022-08-02T07:26:02.396Z,2.87
2022-08-02T07:28:42.485Z,2.80
2022-08-02T07:31:29.787Z,2.72
2022-08-02T07:34:17.253Z,3.00
2022-08-02T07:37:04.495Z,3.10
2022-08-02T07:39:53.805Z,3.70
2022-08-02T07:42:41.661Z,3.20
2022-08-02T07:45:29.556Z,3.08
2022-08-02T07:48:17.243Z,3.40
2022-08-02T07:51:04.852Z,3.40
2022-08-02T07:54:02.176Z,3.47
2022-08-02T07:56:41.393Z,3.70
2022-08-02T07:59:28.987Z,2.58
2022-08-02T08:02:16.432Z,2.98
2022-08-02T08:05:03.556Z,2.80
2022-08-02T08:07:52.439Z,2.50
2022-08-02T08:10:41.600Z,2.25
2022-08-02T08:13:28.695Z,2.87
2022-08-02T08:16:16.231Z,2.52
2022-08-02T08:19:04.666Z,2.87
2022-08-02T08:21:52.301Z,2.05
2022-08-02T08:24:39.845Z,2.67
2022-08-02T08:27:27.371Z,2.25
2022-08-02T08:30:14.712Z,2.08
2022-08-02T08:33:02.922Z,2.47
2022-08-02T08:35:50.245Z,2.30
2022-08-02T08:38:37.556Z,2.40
2022-08-02T08:41:25.144Z,2.08
2022-08-02T08:44:13.855Z,2.12
2022-08-02T08:47:03.719Z,1.82
2022-08-02T08:49:55.531Z,2.20
2022-08-02T08:53:06.945Z,2.10
2022-08-02T08:55:56.722Z,1.90
2022-08-02T08:58:47.375Z,2.08
2022-08-02T09:01:50.445Z,2.00
2022-08-02T09:04:24.773Z,1.75
2022-08-02T09:07:12.340Z,1.82
2022-08-02T09:10:01.522Z,1.95
2022-08-02T09:12:52.060Z,1.65
2022-08-02T09:15:41.287Z,1.80
2022-08-02T09:18:47.215Z,1.65
2022-08-02T09:21:38.701Z,1.70
2022-08-02T09:24:26.285Z,1.77
2022-08-02T09:27:18.312Z,1.67
2022-08-02T09:30:13.776Z,1.62
2022-08-02T09:32:56.955Z,1.65
2022-08-02T09:36:06.853Z,1.25
2022-08-02T09:38:37.671Z,1.52
2022-08-02T09:41:30.315Z,1.25
2022-08-02T09:44:17.608Z,1.60
2022-08-02T09:47:08.269Z,1.60
2022-08-02T09:49:57.831Z,1.60
2022-08-02T09:52:45.729Z,1.50
2022-08-02T09:55:32.948Z,1.50
2022-08-02T09:58:22.048Z,1.65
2022-08-02T10:01:09.592Z,1.67
2022-08-02T10:04:01.241Z,1.40
2022-08-02T10:06:50.700Z,1.62
2022-08-02T10:09:46.355Z,1.40
2022-08-02T10:12:27.883Z,1.60
2022-08-02T10:15:16.191Z,1.40
2022-08-02T10:18:12.957Z,1.62
2022-08-02T10:20:56.161Z,1.87
2022-08-02T10:23:45.570Z,1.87
2022-08-02T10:26:33.278Z,1.30
2022-08-02T10:29:23.139Z,1.60
2022-08-02T10:32:16.221Z,1.50
2022-08-02T10:35:19.847Z,1.50
2022-08-02T10:38:01.697Z,1.70
2022-08-02T10:40:51.635Z,1.62
2022-08-02T10:43:41.777Z,1.90
2022-08-02T10:46:34.426Z,1.67
2022-08-02T10:49:40.399Z,1.70
2022-08-02T10:52:15.028Z,1.67
2022-08-02T10:55:13.235Z,1.50
2022-08-02T10:58:26.130Z,1.40
2022-08-02T11:01:38.536Z,1.40
2022-08-02T11:04:19.804Z,1.75
2022-08-02T11:07:17.169Z,1.50
2022-08-02T11:10:28.663Z,1.65
2022-08-02T11:13:20.417Z,1.52
2022-08-02T11:16:11.599Z,1.57
2022-08-02T11:19:02.908Z,1.62
2022-08-02T11:22:07.243Z,1.50
2022-08-02T11:24:54.870Z,1.37
2022-08-02T11:27:43.369Z,1.50
2022-08-02T11:30:30.768Z,1.40
2022-08-02T11:33:18.667Z,1.27
2022-08-02T11:36:07.714Z,1.80
2022-08-02T11:39:12.399Z,3.00
2022-08-02T11:42:02.257Z,1.67
2022-08-02T11:44:49.731Z,1.70
2022-08-02T11:47:51.943Z,1.67
2022-08-02T11:50:40.867Z,1.47
2022-08-02T11:53:28.384Z,1.50
2022-08-02T11:56:25.057Z,1.60
2022-08-02T11:59:08.163Z,1.65
2022-08-02T12:01:57.391Z,1.62
2022-08-02T12:04:46.594Z,1.67
2022-08-02T12:07:37.805Z,1.85
2022-08-02T12:10:26.904Z,1.90
2022-08-02T12:13:14.483Z,1.62
2022-08-02T12:16:08.685Z,1.60
2022-08-02T12:19:11.893Z,1.80
2022-08-02T12:22:13.291Z,1.60
2022-08-02T12:25:02.689Z,1.72
2022-08-02T12:27:53.390Z,1.70
2022-08-02T12:30:51.525Z,2.00
2022-08-02T12:33:50.215Z,1.87
2022-08-02T12:36:39.506Z,1.50
2022-08-02T12:39:39.151Z,1.60
2022-08-02T12:42:26.717Z,1.50
2022-08-02T12:45:14.176Z,1.77
2022-08-02T12:48:02.345Z,1.50
2022-08-02T12:50:49.827Z,1.60
2022-08-02T12:53:37.716Z,1.50
2022-08-02T12:56:33.587Z,1.55
2022-08-02T12:59:24.168Z,1.43
2022-08-02T13:02:14.277Z,1.70
2022-08-02T13:05:01.621Z,1.82
2022-08-02T13:07:49.363Z,1.90
2022-08-02T13:10:36.509Z,1.50
2022-08-02T13:13:23.796Z,1.92
2022-08-02T13:16:11.839Z,1.90
2022-08-02T13:19:00.114Z,1.98
2022-08-02T13:22:02.095Z,1.80
2022-08-02T13:24:40.695Z,1.90
2022-08-02T13:27:28.649Z,1.80
2022-08-02T13:30:16.193Z,1.80
2022-08-02T13:33:03.773Z,1.50
2022-08-02T13:35:51.775Z,1.60
2022-08-02T13:38:38.986Z,1.60
2022-08-02T13:41:26.573Z,1.72
2022-08-02T13:44:14.012Z,1.98
2022-08-02T13:47:02.819Z,1.70
2022-08-02T13:49:53.360Z,1.65
2022-08-02T13:52:39.563Z,1.50
2022-08-02T13:55:28.034Z,1.70
2022-08-02T13:58:15.668Z,1.60
2022-08-02T14:01:03.161Z,1.67
2022-08-02T14:04:07.937Z,1.70
2022-08-02T14:06:40.158Z,1.70
2022-08-02T14:09:27.549Z,1.90
2022-08-02T14:12:15.687Z,1.65
2022-08-02T14:15:03.473Z,1.62
2022-08-02T14:17:50.875Z,1.70
2022-08-02T14:20:39.812Z,1.57
2022-08-02T14:23:50.214Z,1.57
2022-08-02T14:26:27.660Z,1.55
2022-08-02T14:29:06.899Z,1.50
2022-08-02T14:31:54.576Z,1.32
2022-08-02T14:34:43.771Z,1.50
2022-08-02T14:37:31.407Z,1.92
2022-08-02T14:40:30.674Z,1.50
2022-08-02T14:43:08.204Z,1.70
2022-08-02T14:45:55.723Z,1.80
2022-08-02T14:48:43.053Z,1.70
2022-08-02T14:51:32.186Z,1.72
2022-08-02T14:54:19.768Z,1.50
2022-08-02T14:57:07.386Z,1.60
2022-08-02T14:59:55.034Z,1.50
2022-08-02T15:02:42.549Z,1.50
2022-08-02T15:05:30.117Z,1.70
2022-08-02T15:08:17.600Z,1.57
2022-08-02T15:11:05.265Z,1.70
2022-08-02T15:13:52.707Z,1.85
2022-08-02T15:16:55.412Z,1.75
2022-08-02T15:19:56.088Z,1.42
2022-08-02T15:22:20.052Z,1.62
2022-08-02T15:25:14.752Z,1.82
2022-08-02T15:27:56.901Z,1.50
2022-08-02T15:30:44.294Z,2.20
2022-08-02T15:33:31.477Z,1.70
2022-08-02T15:36:18.662Z,1.80
2022-08-02T15:39:07.297Z,2.08
2022-08-02T15:41:54.531Z,1.70
2022-08-02T15:44:41.967Z,1.55
2022-08-02T15:47:29.578Z,1.70
2022-08-02T15:50:17.155Z,1.50
2022-08-02T15:53:04.384Z,3.30
2022-08-02T15:56:05.141Z,2.45
2022-08-02T15:58:44.586Z,2.95
2022-08-02T16:01:37.451Z,1.92
2022-08-02T16:04:19.143Z,1.77
2022-08-02T16:07:06.672Z,1.60
2022-08-02T16:09:54.018Z,1.60
2022-08-02T16:12:41.877Z,1.70
2022-08-02T16:15:29.212Z,1.60
2022-08-02T16:18:16.837Z,1.70
2022-08-02T16:21:04.410Z,1.70
2022-08-02T16:23:59.125Z,1.50
2022-08-02T16:26:42.258Z,1.37
2022-08-02T16:29:33.486Z,1.70
2022-08-02T16:32:18.204Z,1.77
2022-08-02T16:35:07.722Z,1.45
2022-08-02T16:37:55.182Z,1.72
2022-08-02T16:40:42.340Z,1.50
2022-08-02T16:43:29.789Z,1.45
2022-08-02T16:46:19.086Z,1.60
2022-08-02T16:49:06.490Z,1.42
2022-08-02T16:51:55.340Z,1.70
2022-08-02T16:54:43.203Z,1.65
2022-08-02T16:57:43.545Z,1.62
2022-08-02T17:00:19.968Z,1.60
2022-08-02T17:03:13.275Z,1.57
2022-08-02T17:05:57.293Z,1.40
2022-08-02T17:08:54.251Z,1.90
2022-08-02T17:11:36.638Z,1.80
2022-08-02T17:14:22.932Z,1.57
2022-08-02T17:17:14.288Z,1.80
2022-08-02T17:20:01.016Z,1.70
2022-08-02T17:22:49.206Z,1.85
2022-08-02T17:25:41.614Z,1.67
2022-08-02T17:28:31.341Z,1.72
2022-08-02T17:31:16.364Z,1.72
2022-08-02T17:34:03.856Z,1.62
2022-08-02T17:36:52.308Z,1.80
2022-08-02T17:39:44.337Z,1.80
2022-08-02T17:42:29.047Z,1.52
2022-08-02T17:45:25.207Z,1.60
2022-08-02T17:48:05.677Z,1.60
2022-08-02T17:50:53.231Z,1.70
2022-08-02T17:53:40.467Z,1.60
2022-08-02T17:56:28.780Z,2.00
2022-08-02T17:59:31.072Z,1.37
2022-08-02T18:02:13.306Z,1.55
2022-08-02T18:05:01.405Z,2.00
2022-08-02T18:07:55.478Z,1.65
2022-08-02T18:10:39.457Z,1.77
2022-08-02T18:13:32.727Z,1.35
2022-08-02T18:16:21.409Z,1.92
2022-08-02T18:19:05.017Z,1.82
2022-08-02T18:21:53.876Z,1.87
2022-08-02T18:24:44.146Z,1.72
2022-08-02T18:27:31.708Z,1.60
2022-08-02T18:30:27.954Z,1.50
2022-08-02T18:33:58.017Z,1.62
2022-08-02T18:35:57.389Z,1.72
2022-08-02T18:38:45.895Z,1.40
2022-08-02T18:41:36.272Z,1.70
2022-08-02T18:44:23.956Z,1.60
2022-08-02T18:47:11.485Z,1.70
2022-08-02T18:49:59.160Z,1.90
2022-08-02T18:52:47.772Z,1.60
2022-08-02T18:56:00.012Z,1.80
2022-08-02T18:58:24.301Z,2.00
2022-08-02T19:01:15.019Z,1.62
2022-08-02T19:04:02.296Z,1.60
2022-08-02T19:06:51.441Z,1.77
2022-08-02T19:09:40.073Z,1.60
2022-08-02T19:12:28.897Z,1.85
2022-08-02T19:15:17.111Z,1.75
2022-08-02T19:18:05.294Z,2.10
2022-08-02T19:20:59.579Z,2.20
2022-08-02T19:23:54.578Z,2.17
2022-08-02T19:26:32.929Z,2.00
2022-08-02T19:29:25.031Z,1.98
2022-08-02T19:32:42.091Z,2.50
2022-08-02T19:35:01.212Z,2.30
2022-08-02T19:37:50.031Z,2.47
2022-08-02T19:40:39.070Z,2.30
2022-08-02T19:44:24.047Z,2.20
2022-08-02T19:46:16.246Z,2.10
2022-08-02T19:49:20.215Z,2.35
2022-08-02T19:51:55.656Z,2.30
2022-08-02T19:57:34.610Z,2.02
2022-08-02T20:00:21.296Z,2.40
2022-08-02T20:03:09.481Z,2.05
2022-08-02T20:05:58.108Z,2.15
2022-08-02T20:08:53.264Z,2.33
2022-08-02T20:11:35.761Z,1.95
2022-08-02T20:14:27.649Z,2.20
2022-08-02T20:17:14.660Z,2.05
2022-08-02T20:20:02.141Z,1.95
2022-08-02T20:23:33.295Z,2.00
2022-08-02T20:25:56.670Z,2.25
2022-08-02T20:28:44.280Z,2.20
2022-08-02T20:31:31.765Z,2.42
2022-08-02T20:34:20.651Z,2.12
2022-08-02T20:37:59.978Z,2.02
2022-08-02T20:39:58.571Z,2.10
2022-08-02T20:42:47.882Z,1.90
2022-08-02T20:45:35.808Z,2.08
2022-08-02T20:48:23.262Z,2.25
2022-08-02T20:51:12.329Z,2.17
2022-08-02T20:53:59.989Z,2.02
2022-08-02T20:56:50.568Z,2.17
2022-08-02T20:59:39.704Z,2.30
2022-08-02T21:02:28.540Z,2.17
2022-08-02T21:05:18.310Z,2.15
2022-08-02T21:08:06.243Z,2.20
2022-08-02T21:10:55.638Z,2.00
2022-08-02T21:13:47.282Z,2.25
2022-08-02T21:16:34.023Z,2.33
2022-08-02T21:19:21.507Z,2.30
2022-08-02T21:22:09.018Z,2.22
2022-08-02T21:24:56.866Z,2.17
2022-08-02T21:27:52.650Z,2.10
2022-08-02T21:30:32.944Z,2.17
2022-08-02T21:33:23.562Z,2.25
2022-08-02T21:36:09.179Z,2.20
2022-08-02T21:38:57.865Z,2.20
2022-08-02T21:41:47.118Z,2.12
2022-08-02T21:44:39.338Z,1.77
2022-08-02T21:47:28.067Z,2.12
2022-08-02T21:50:16.280Z,1.90
2022-08-02T21:53:03.929Z,2.20
2022-08-02T21:56:00.587Z,1.90
2022-08-02T21:58:40.601Z,2.33
2022-08-02T22:01:28.453Z,2.27
2022-08-02T22:04:17.149Z,2.15
2022-08-02T22:07:04.499Z,2.37
2022-08-02T22:09:51.874Z,2.20
2022-08-02T22:12:40.158Z,2.35
2022-08-02T22:15:35.786Z,2.20
2022-08-02T22:18:16.825Z,2.30
2022-08-02T22:21:14.139Z,2.22
2022-08-02T22:23:54.913Z,1.92
2022-08-02T22:26:44.140Z,2.50
2022-08-02T22:29:35.323Z,1.77
2022-08-02T22:32:40.886Z,1.90
2022-08-02T22:35:28.191Z,2.20
2022-08-02T22:38:18.643Z,2.35
2022-08-02T22:41:07.804Z,2.30
2022-08-02T22:43:56.473Z,2.25
2022-08-02T22:46:43.935Z,2.05
2022-08-02T22:49:38.003Z,2.25
2022-08-02T22:52:21.050Z,2.27
2022-08-02T22:55:08.847Z,1.85
2022-08-02T22:57:57.283Z,2.10
2022-08-02T22:58:53.721Z,2.33
2022-08-02T23:00:44.646Z,2.20
2022-08-02T23:03:32.119Z,2.22
2022-08-02T23:06:22.598Z,2.10
2022-08-02T23:09:08.556Z,2.17
2022-08-02T23:11:56.216Z,2.17
2022-08-02T23:14:43.478Z,2.50
2022-08-02T23:17:48.873Z,2.27
2022-08-02T23:20:36.809Z,2.10
2022-08-02T23:23:24.517Z,1.80
2022-08-02T23:26:12.020Z,2.22
2022-08-02T23:28:59.512Z,2.58
2022-08-02T23:31:47.159Z,2.30
2022-08-02T23:34:35.002Z,2.62
2022-08-02T23:37:22.917Z,2.62
2022-08-02T23:40:11.772Z,2.40
2022-08-02T23:42:59.477Z,2.27
2022-08-02T23:45:46.862Z,2.60
2022-08-02T23:48:34.410Z,2.45
2022-08-02T23:51:22.257Z,2.50
2022-08-02T23:54:10.420Z,2.50
2022-08-02T23:56:57.768Z,3.10
2022-08-02T23:59:46.397Z,2.60
